createdAt,value
2018-12-02T00:00:49.789Z,98.10
2018-12-02T00:03:18.407Z,98.30
2018-12-02T00:05:46.985Z,98.20
2018-12-02T00:08:15.545Z,98.30
2018-12-02T00:10:44.159Z,98.20
2018-12-02T00:13:12.767Z,98.30
2018-12-02T00:15:41.921Z,98.30
2018-12-02T00:18:12.622Z,98.20
2018-12-02T00:20:41.513Z,98.30
2018-12-02T00:23:10.548Z,98.40
2018-12-02T00:25:39.137Z,98.40
2018-12-02T00:28:09.101Z,98.30
2018-12-02T00:30:37.777Z,98.30
2018-12-02T00:33:07.003Z,98.40
2018-12-02T00:35:35.595Z,98.30
2018-12-02T00:38:05.895Z,98.40
2018-12-02T00:40:34.502Z,98.30
2018-12-02T00:43:03.105Z,98.30
2018-12-02T00:45:34.684Z,98.20
2018-12-02T00:48:04.975Z,98.20
2018-12-02T00:50:34.140Z,98.20
2018-12-02T00:53:02.862Z,98.10
2018-12-02T00:55:42.989Z,97.90
2018-12-02T00:58:11.546Z,98.00
2018-12-02T01:00:40.155Z,97.90
2018-12-02T01:03:09.774Z,97.90
2018-12-02T01:05:38.362Z,97.90
2018-12-02T01:08:09.062Z,98.10
2018-12-02T01:10:37.974Z,98.10
2018-12-02T01:13:09.263Z,98.30
2018-12-02T01:15:38.748Z,98.40
2018-12-02T01:18:07.749Z,98.40
2018-12-02T01:20:36.845Z,98.50
2018-12-02T01:23:06.211Z,98.50
2018-12-02T01:25:35.594Z,98.70
2018-12-02T01:28:04.268Z,98.70
2018-12-02T01:30:32.858Z,98.70
2018-12-02T01:33:01.445Z,98.70
2018-12-02T01:35:30.031Z,98.80
2018-12-02T01:37:58.640Z,98.90
2018-12-02T01:40:27.193Z,99.00
2018-12-02T01:42:55.748Z,99.10
2018-12-02T01:45:25.233Z,99.10
2018-12-02T01:47:54.791Z,99.30
2018-12-02T01:50:24.232Z,99.40
2018-12-02T01:52:53.948Z,99.40
2018-12-02T01:55:22.636Z,99.40
2018-12-02T01:57:51.301Z,99.50
2018-12-02T02:00:22.699Z,99.50
2018-12-02T02:02:51.711Z,99.50
2018-12-02T02:05:22.221Z,99.40
2018-12-02T02:07:50.824Z,99.50
2018-12-02T02:10:24.200Z,99.50
2018-12-02T02:12:52.821Z,99.50
2018-12-02T02:15:21.486Z,99.50
2018-12-02T02:17:50.108Z,99.50
2018-12-02T02:20:21.568Z,99.40
2018-12-02T02:22:50.227Z,99.20
2018-12-02T02:25:19.762Z,99.40
2018-12-02T02:27:54.531Z,99.40
2018-12-02T02:30:24.160Z,99.30
2018-12-02T02:32:52.703Z,99.20
2018-12-02T02:35:22.071Z,99.20
2018-12-02T02:37:52.836Z,99.30
2018-12-02T02:40:26.616Z,99.20
2018-12-02T02:42:55.213Z,99.30
2018-12-02T02:45:23.876Z,99.30
2018-12-02T02:47:52.412Z,99.30
2018-12-02T02:50:22.937Z,99.20
2018-12-02T02:52:52.594Z,99.10
2018-12-02T02:55:21.194Z,99.30
2018-12-02T02:57:50.166Z,99.00
2018-12-02T03:00:19.824Z,99.00
2018-12-02T03:02:48.452Z,99.00
2018-12-02T03:05:17.337Z,99.00
2018-12-02T03:07:46.017Z,99.00
2018-12-02T03:10:17.437Z,99.20
2018-12-02T03:12:49.006Z,99.20
2018-12-02T03:15:18.334Z,99.20
2018-12-02T03:17:46.920Z,99.30
2018-12-02T03:20:17.372Z,99.00
2018-12-02T03:22:47.853Z,99.10
2018-12-02T03:25:18.422Z,99.20
2018-12-02T03:27:46.980Z,99.20
2018-12-02T03:30:19.265Z,99.20
2018-12-02T03:32:48.017Z,99.30
2018-12-02T03:35:20.598Z,99.40
2018-12-02T03:37:49.239Z,99.40
2018-12-02T03:40:19.920Z,99.50
2018-12-02T03:42:48.686Z,99.40
2018-12-02T03:45:19.952Z,99.40
2018-12-02T03:47:48.565Z,99.40
2018-12-02T03:50:19.119Z,99.50
2018-12-02T03:52:47.750Z,99.60
2018-12-02T03:55:16.277Z,99.60
2018-12-02T03:57:44.863Z,99.60
2018-12-02T04:00:16.252Z,99.60
2018-12-02T04:02:44.796Z,99.60
2018-12-02T04:05:14.320Z,99.60
2018-12-02T04:07:42.868Z,99.50
2018-12-02T04:10:13.225Z,99.60
2018-12-02T04:12:41.903Z,99.50
2018-12-02T04:15:11.691Z,99.40
2018-12-02T04:17:40.378Z,99.50
2018-12-02T04:20:10.149Z,99.50
2018-12-02T04:22:38.768Z,99.50
2018-12-02T04:25:10.447Z,99.50
2018-12-02T04:27:39.038Z,99.60
2018-12-02T04:30:24.087Z,99.50
2018-12-02T04:32:53.334Z,99.50
2018-12-02T04:35:23.782Z,99.70
2018-12-02T04:37:52.400Z,99.60
2018-12-02T04:40:20.941Z,99.60
2018-12-02T04:42:49.475Z,99.50
2018-12-02T04:45:18.795Z,99.50
2018-12-02T04:47:47.473Z,99.50
2018-12-02T04:50:17.929Z,99.50
2018-12-02T04:52:46.632Z,99.60
2018-12-02T04:55:15.333Z,99.60
2018-12-02T04:57:43.932Z,99.70
2018-12-02T05:00:14.361Z,99.70
2018-12-02T05:02:43.371Z,99.80
2018-12-02T05:05:13.110Z,99.80
2018-12-02T05:07:42.150Z,99.70
2018-12-02T05:10:13.833Z,99.70
2018-12-02T05:12:42.484Z,99.80
2018-12-02T05:15:12.020Z,99.80
2018-12-02T05:17:40.748Z,99.80
2018-12-02T05:20:13.432Z,99.80
2018-12-02T05:22:41.966Z,99.80
2018-12-02T05:25:17.411Z,99.90
2018-12-02T05:27:40.975Z,99.80
2018-12-02T05:30:12.514Z,99.90
2018-12-02T05:32:41.375Z,99.80
2018-12-02T05:35:10.902Z,99.90
2018-12-02T05:37:39.480Z,99.90
2018-12-02T05:40:19.305Z,99.90
2018-12-02T05:42:47.989Z,99.90
2018-12-02T05:45:17.491Z,99.90
2018-12-02T05:47:46.166Z,99.90
2018-12-02T05:50:15.854Z,99.90
2018-12-02T05:52:45.155Z,99.90
2018-12-02T05:55:14.940Z,99.90
2018-12-02T05:57:43.604Z,99.90
2018-12-02T06:00:13.351Z,99.90
2018-12-02T06:02:41.950Z,99.90
2018-12-02T06:05:11.454Z,99.90
2018-12-02T06:07:40.036Z,99.90
2018-12-02T06:10:12.397Z,99.80
2018-12-02T06:12:41.032Z,99.90
2018-12-02T06:15:10.970Z,99.80
2018-12-02T06:17:39.739Z,99.70
2018-12-02T06:20:13.944Z,99.50
2018-12-02T06:22:42.555Z,99.40
2018-12-02T06:25:11.140Z,99.20
2018-12-02T06:27:39.833Z,99.10
2018-12-02T06:30:23.921Z,99.00
2018-12-02T06:33:01.408Z,98.80
2018-12-02T06:35:30.007Z,98.70
2018-12-02T06:37:59.901Z,98.70
2018-12-02T06:40:29.114Z,98.70
2018-12-02T06:42:57.786Z,98.60
2018-12-02T06:45:26.380Z,98.70
2018-12-02T06:47:54.960Z,98.70
2018-12-02T06:50:26.416Z,98.60
2018-12-02T06:52:55.703Z,98.60
2018-12-02T06:55:32.628Z,98.50
2018-12-02T06:58:21.732Z,98.40
2018-12-02T07:01:00.883Z,98.40
2018-12-02T07:04:09.600Z,98.30
2018-12-02T07:06:38.165Z,98.20
2018-12-02T07:09:08.363Z,98.10
2018-12-02T07:11:37.066Z,98.10
2018-12-02T07:14:05.606Z,98.00
2018-12-02T07:16:34.258Z,98.10
2018-12-02T07:19:09.020Z,98.10
2018-12-02T07:21:41.711Z,98.00
2018-12-02T07:24:16.385Z,97.80
2018-12-02T07:26:48.369Z,98.00
2018-12-02T07:29:16.978Z,98.00
2018-12-02T07:31:45.508Z,97.90
2018-12-02T07:34:14.055Z,97.90
2018-12-02T07:36:42.595Z,98.00
2018-12-02T07:40:55.043Z,98.10
2018-12-02T07:43:23.587Z,98.10
2018-12-02T07:45:52.191Z,98.10
2018-12-02T07:48:20.809Z,98.10
2018-12-02T07:50:49.423Z,98.10
2018-12-02T07:53:17.988Z,98.10
2018-12-02T07:55:46.561Z,98.10
2018-12-02T07:58:15.626Z,98.20
2018-12-02T08:00:44.561Z,98.20
2018-12-02T08:03:13.126Z,98.30
2018-12-02T08:05:41.751Z,98.30
2018-12-02T08:08:10.655Z,98.30
2018-12-02T08:10:39.739Z,98.50
2018-12-02T08:13:09.034Z,98.60
2018-12-02T08:15:37.816Z,98.80
2018-12-02T08:18:07.712Z,98.80
2018-12-02T08:20:36.908Z,98.90
2018-12-02T08:23:06.186Z,98.90
2018-12-02T08:25:37.253Z,98.80
2018-12-02T08:28:05.846Z,98.80
2018-12-02T08:30:34.472Z,98.90
2018-12-02T08:33:03.146Z,98.90
2018-12-02T08:35:31.645Z,99.10
2018-12-02T08:38:02.069Z,98.70
2018-12-02T08:40:30.735Z,98.70
2018-12-02T08:42:59.451Z,98.60
2018-12-02T08:45:27.999Z,98.50
2018-12-02T08:47:56.799Z,98.50
2018-12-02T08:50:25.347Z,98.40
2018-12-02T08:52:54.024Z,98.30
2018-12-02T08:55:22.560Z,98.20
2018-12-02T08:57:52.526Z,98.30
2018-12-02T09:00:21.886Z,98.10
2018-12-02T09:02:52.746Z,98.10
2018-12-02T09:05:21.275Z,98.10
2018-12-02T09:07:50.043Z,98.00
2018-12-02T09:10:21.873Z,97.90
2018-12-02T09:12:51.899Z,97.90
2018-12-02T09:15:20.438Z,97.90
2018-12-02T09:17:49.057Z,97.40
2018-12-02T09:20:21.397Z,97.60
2018-12-02T09:22:49.891Z,97.40
2018-12-02T09:25:18.373Z,97.30
2018-12-02T09:27:46.841Z,96.80
2018-12-02T09:30:16.670Z,97.00
2018-12-02T09:32:45.283Z,97.20
2018-12-02T09:35:13.786Z,96.90
2018-12-02T09:37:42.333Z,96.60
2018-12-02T09:40:13.740Z,96.50
2018-12-02T09:42:47.238Z,96.40
2018-12-02T09:45:17.025Z,96.30
2018-12-02T09:47:45.630Z,96.30
2018-12-02T09:50:14.911Z,96.10
2018-12-02T09:52:43.641Z,96.10
2018-12-02T09:55:47.374Z,96.00
2018-12-02T09:58:25.090Z,96.00
2018-12-02T10:00:54.508Z,95.80
2018-12-02T10:03:23.252Z,95.50
2018-12-02T10:05:51.959Z,95.30
2018-12-02T10:08:20.495Z,95.20
2018-12-02T10:10:49.551Z,95.00
2018-12-02T10:13:19.875Z,94.90
2018-12-02T10:15:48.560Z,94.70
2018-12-02T10:18:17.162Z,94.70
2018-12-02T10:20:45.813Z,94.70
2018-12-02T10:23:14.422Z,94.90
2018-12-02T10:25:43.423Z,94.80
2018-12-02T10:28:11.972Z,94.80
2018-12-02T10:30:41.113Z,94.90
2018-12-02T10:33:09.936Z,94.90
2018-12-02T10:35:38.791Z,94.70
2018-12-02T10:38:08.366Z,94.60
2018-12-02T10:40:37.437Z,94.60
2018-12-02T10:43:06.877Z,94.80
2018-12-02T10:45:35.791Z,94.80
2018-12-02T10:48:07.448Z,94.80
2018-12-02T10:50:36.782Z,94.70
2018-12-02T10:53:11.732Z,94.70
2018-12-02T10:55:46.634Z,94.70
2018-12-02T10:58:19.454Z,94.70
2018-12-02T11:00:53.419Z,94.70
2018-12-02T11:03:21.975Z,94.70
2018-12-02T11:05:50.688Z,94.70
2018-12-02T11:08:19.336Z,94.70
2018-12-02T11:10:47.973Z,94.70
2018-12-02T11:13:17.026Z,94.80
2018-12-02T11:15:45.813Z,95.10
2018-12-02T11:18:14.785Z,94.80
2018-12-02T11:20:43.742Z,94.90
2018-12-02T11:23:12.393Z,95.10
2018-12-02T11:25:40.963Z,95.00
2018-12-02T11:28:10.260Z,95.10
2018-12-02T11:30:39.785Z,95.20
2018-12-02T11:33:08.949Z,95.20
2018-12-02T11:35:38.209Z,95.10
2018-12-02T11:38:08.053Z,95.20
2018-12-02T11:40:37.450Z,95.20
2018-12-02T11:43:07.219Z,95.20
2018-12-02T11:45:35.733Z,95.40
2018-12-02T11:48:04.366Z,94.90
2018-12-02T11:50:33.052Z,94.90
2018-12-02T11:53:01.538Z,95.00
2018-12-02T11:55:30.450Z,94.90
2018-12-02T11:57:59.063Z,94.80
2018-12-02T12:00:31.786Z,94.90
2018-12-02T12:03:00.468Z,94.70
2018-12-02T12:05:29.271Z,94.80
2018-12-02T12:07:57.882Z,94.70
2018-12-02T12:10:27.739Z,94.80
2018-12-02T12:13:00.271Z,94.70
2018-12-02T12:15:29.616Z,94.40
2018-12-02T12:17:58.643Z,94.00
2018-12-02T12:20:31.118Z,93.80
2018-12-02T12:22:59.775Z,93.60
2018-12-02T12:25:28.481Z,93.70
2018-12-02T12:27:57.837Z,93.60
2018-12-02T12:30:28.503Z,93.70
2018-12-02T12:32:57.120Z,93.70
2018-12-02T12:35:25.928Z,93.60
2018-12-02T12:37:54.613Z,93.70
2018-12-02T12:40:25.482Z,93.90
2018-12-02T12:43:06.835Z,93.70
2018-12-02T12:45:35.380Z,93.80
2018-12-02T12:48:03.961Z,93.90
2018-12-02T12:50:32.557Z,94.00
2018-12-02T12:53:01.100Z,94.00
2018-12-02T12:55:29.824Z,93.80
2018-12-02T12:57:58.526Z,93.80
2018-12-02T13:00:27.109Z,93.90
2018-12-02T13:02:55.622Z,94.10
2018-12-02T13:05:25.285Z,94.40
2018-12-02T13:07:55.006Z,94.90
2018-12-02T13:10:23.813Z,95.30
2018-12-02T13:12:52.582Z,95.70
2018-12-02T13:15:22.180Z,96.00
2018-12-02T13:17:56.627Z,96.00
2018-12-02T13:20:33.551Z,95.80
2018-12-02T13:23:02.378Z,95.60
2018-12-02T13:25:30.948Z,95.40
2018-12-02T13:27:59.508Z,95.10
2018-12-02T13:30:28.104Z,94.80
2018-12-02T13:32:56.750Z,94.30
2018-12-02T13:35:25.396Z,94.20
2018-12-02T13:37:54.141Z,93.90
2018-12-02T13:40:23.282Z,93.90
2018-12-02T13:42:56.229Z,94.30
2018-12-02T13:45:26.749Z,94.30
2018-12-02T13:47:55.258Z,94.60
2018-12-02T13:50:23.851Z,95.10
2018-12-02T13:52:53.643Z,95.30
2018-12-02T13:55:25.437Z,95.30
2018-12-02T13:57:54.093Z,95.50
2018-12-02T14:00:24.687Z,95.80
2018-12-02T14:03:04.106Z,95.80
2018-12-02T14:05:32.643Z,95.50
2018-12-02T14:08:01.109Z,95.40
2018-12-02T14:10:29.627Z,95.30
2018-12-02T14:13:03.459Z,95.20
2018-12-02T14:15:34.914Z,94.90
2018-12-02T14:18:08.773Z,94.60
2018-12-02T14:20:43.969Z,94.30
2018-12-02T14:23:12.505Z,94.00
2018-12-02T14:25:41.120Z,93.80
2018-12-02T14:28:10.170Z,93.70
2018-12-02T14:30:38.708Z,93.80
2018-12-02T14:33:07.232Z,93.70
2018-12-02T14:35:35.708Z,93.80
2018-12-02T14:38:04.209Z,94.00
2018-12-02T14:40:32.753Z,94.30
2018-12-02T14:43:01.282Z,94.80
2018-12-02T14:45:29.777Z,95.10
2018-12-02T14:47:58.288Z,95.30
2018-12-02T14:50:26.844Z,95.60
2018-12-02T14:52:55.401Z,95.80
2018-12-02T14:55:24.352Z,96.00
2018-12-02T14:57:53.134Z,96.10
2018-12-02T15:00:21.723Z,96.10
2018-12-02T15:02:50.528Z,96.20
2018-12-02T15:05:18.977Z,96.00
2018-12-02T15:07:47.442Z,96.00
2018-12-02T15:10:17.176Z,96.00
2018-12-02T15:12:46.895Z,95.70
2018-12-02T15:15:16.466Z,95.30
2018-12-02T15:17:46.022Z,95.10
2018-12-02T15:20:17.209Z,95.10
2018-12-02T15:22:45.730Z,94.70
2018-12-02T15:25:14.960Z,94.40
2018-12-02T15:27:44.306Z,94.10
2018-12-02T15:30:15.061Z,93.90
2018-12-02T15:32:45.882Z,94.00
2018-12-02T15:35:14.693Z,93.80
2018-12-02T15:37:43.223Z,93.90
2018-12-02T15:40:16.676Z,93.90
2018-12-02T15:42:50.728Z,93.90
2018-12-02T15:45:19.845Z,94.00
2018-12-02T15:47:48.280Z,94.10
2018-12-02T15:50:19.134Z,94.00
2018-12-02T15:52:47.801Z,94.40
2018-12-02T15:55:20.871Z,94.10
2018-12-02T15:57:49.508Z,94.60
2018-12-02T16:00:20.669Z,94.10
2018-12-02T16:02:49.821Z,94.20
2018-12-02T16:05:18.797Z,94.00
2018-12-02T16:07:47.729Z,94.00
2018-12-02T16:10:16.234Z,94.00
2018-12-02T16:12:45.875Z,93.90
2018-12-02T16:15:17.493Z,93.90
2018-12-02T16:17:47.085Z,94.10
2018-12-02T16:20:19.272Z,94.30
2018-12-02T16:22:48.344Z,94.60
2018-12-02T16:25:16.939Z,94.90
2018-12-02T16:27:45.485Z,95.00
2018-12-02T16:30:14.990Z,95.10
2018-12-02T16:32:44.910Z,95.40
2018-12-02T16:35:14.293Z,95.60
2018-12-02T16:37:43.296Z,95.80
2018-12-02T16:40:14.098Z,96.00
2018-12-02T16:42:42.715Z,96.00
2018-12-02T16:45:12.464Z,96.00
2018-12-02T16:47:41.401Z,96.30
2018-12-02T16:50:19.978Z,96.10
2018-12-02T16:52:48.625Z,96.00
2018-12-02T16:55:19.020Z,95.90
2018-12-02T16:57:50.480Z,95.90
2018-12-02T17:00:22.337Z,95.90
2018-12-02T17:02:51.052Z,95.80
2018-12-02T17:05:19.654Z,95.70
2018-12-02T17:07:48.269Z,95.50
2018-12-02T17:10:17.176Z,95.30
2018-12-02T17:12:45.997Z,95.20
2018-12-02T17:15:15.222Z,95.10
2018-12-02T17:17:44.098Z,95.00
2018-12-02T17:20:17.615Z,94.90
2018-12-02T17:22:47.639Z,94.80
2018-12-02T17:25:16.464Z,94.30
2018-12-02T17:27:46.008Z,94.50
2018-12-02T17:30:24.285Z,94.40
2018-12-02T17:32:53.029Z,94.30
2018-12-02T17:35:21.712Z,94.30
2018-12-02T17:37:50.387Z,94.20
2018-12-02T17:40:21.036Z,94.10
2018-12-02T17:42:50.109Z,94.10
2018-12-02T17:45:18.763Z,94.10
2018-12-02T17:47:47.522Z,94.10
2018-12-02T17:50:17.778Z,94.50
2018-12-02T17:52:47.726Z,94.90
2018-12-02T17:55:16.351Z,95.10
2018-12-02T17:57:45.071Z,95.20
2018-12-02T18:00:22.004Z,95.50
2018-12-02T18:02:51.607Z,95.80
2018-12-02T18:05:28.243Z,96.00
2018-12-02T18:07:57.017Z,96.10
2018-12-02T18:10:25.575Z,96.20
2018-12-02T18:12:54.410Z,96.40
2018-12-02T18:15:22.945Z,96.40
2018-12-02T18:17:51.811Z,96.40
2018-12-02T18:20:20.356Z,96.40
2018-12-02T18:22:48.921Z,96.50
2018-12-02T18:25:18.760Z,96.50
2018-12-02T18:27:47.389Z,96.70
2018-12-02T18:30:18.385Z,96.60
2018-12-02T18:32:47.444Z,96.70
2018-12-02T18:35:52.509Z,96.70
2018-12-02T18:38:22.442Z,96.90
2018-12-02T18:40:58.507Z,96.90
2018-12-02T18:43:27.589Z,97.10
2018-12-02T18:45:56.479Z,97.10
2018-12-02T18:48:25.243Z,97.10
2018-12-02T18:50:54.032Z,97.30
2018-12-02T18:53:22.830Z,97.50
2018-12-02T18:55:51.421Z,97.60
2018-12-02T18:58:19.963Z,97.70
2018-12-02T19:00:48.929Z,97.60
2018-12-02T19:03:19.397Z,97.60
2018-12-02T19:05:48.951Z,97.60
2018-12-02T19:08:17.717Z,97.50
2018-12-02T19:10:49.323Z,97.50
2018-12-02T19:13:17.972Z,97.60
2018-12-02T19:15:46.761Z,97.30
2018-12-02T19:18:15.237Z,97.60
2018-12-02T19:20:43.983Z,97.60
2018-12-02T19:23:14.998Z,97.70
2018-12-02T19:25:43.689Z,97.70
2018-12-02T19:28:12.297Z,97.60
2018-12-02T19:30:41.134Z,97.70
2018-12-02T19:33:11.905Z,97.60
2018-12-02T19:35:40.733Z,97.70
2018-12-02T19:38:14.573Z,97.70
2018-12-02T19:40:43.256Z,97.70
2018-12-02T19:43:11.924Z,97.80
2018-12-02T19:45:40.493Z,97.70
2018-12-02T19:48:09.083Z,97.60
2018-12-02T19:50:37.607Z,97.70
2018-12-02T19:53:06.159Z,97.50
2018-12-02T19:55:34.745Z,97.50
2018-12-02T19:58:03.345Z,97.40
2018-12-02T20:00:37.576Z,97.30
2018-12-02T20:03:06.288Z,97.40
2018-12-02T20:05:41.848Z,97.60
2018-12-02T20:08:11.805Z,97.60
2018-12-02T20:10:41.744Z,97.90
2018-12-02T20:13:13.538Z,97.50
2018-12-02T20:15:47.363Z,97.40
2018-12-02T20:18:15.975Z,97.30
2018-12-02T20:20:48.401Z,97.40
2018-12-02T20:23:23.157Z,97.10
2018-12-02T20:25:52.897Z,97.20
2018-12-02T20:28:22.421Z,97.30
2018-12-02T20:30:51.381Z,97.30
2018-12-02T20:33:19.976Z,97.80
2018-12-02T20:35:48.618Z,97.50
2018-12-02T20:38:17.304Z,97.50
2018-12-02T20:40:46.007Z,97.90
2018-12-02T20:43:14.668Z,97.60
2018-12-02T20:45:43.212Z,97.70
2018-12-02T20:48:11.929Z,97.70
2018-12-02T20:50:40.470Z,97.60
2018-12-02T20:53:08.994Z,97.40
2018-12-02T20:55:37.653Z,97.40
2018-12-02T20:58:06.206Z,97.20
2018-12-02T21:00:35.509Z,96.90
2018-12-02T21:03:09.164Z,96.70
2018-12-02T21:05:39.405Z,96.50
2018-12-02T21:08:08.002Z,96.40
2018-12-02T21:10:36.523Z,96.50
2018-12-02T21:13:05.062Z,96.20
2018-12-02T21:15:33.554Z,96.20
2018-12-02T21:18:02.094Z,95.90
2018-12-02T21:20:30.672Z,96.00
2018-12-02T21:23:00.318Z,95.90
2018-12-02T21:25:28.949Z,96.00
2018-12-02T21:27:57.425Z,95.90
2018-12-02T21:30:27.363Z,95.90
2018-12-02T21:32:57.022Z,95.80
2018-12-02T21:35:25.611Z,95.60
2018-12-02T21:37:56.122Z,95.50
2018-12-02T21:40:24.674Z,95.40
2018-12-02T21:42:54.012Z,95.40
2018-12-02T21:45:22.509Z,95.40
2018-12-02T21:47:52.374Z,95.40
2018-12-02T21:50:26.055Z,95.40
2018-12-02T21:52:55.008Z,95.30
2018-12-02T21:55:23.524Z,95.40
2018-12-02T21:57:52.089Z,95.30
2018-12-02T22:00:25.905Z,95.40
2018-12-02T22:02:54.832Z,95.60
2018-12-02T22:05:23.548Z,95.50
2018-12-02T22:07:52.366Z,95.50
2018-12-02T22:10:23.327Z,95.60
2018-12-02T22:12:51.849Z,95.60
2018-12-02T22:15:20.357Z,95.60
2018-12-02T22:17:48.976Z,95.70
2018-12-02T22:20:17.843Z,95.70
2018-12-02T22:22:46.343Z,95.70
2018-12-02T22:25:19.773Z,95.60
2018-12-02T22:27:50.411Z,95.60
2018-12-02T22:30:21.016Z,95.60
2018-12-02T22:32:49.579Z,95.40
2018-12-02T22:35:18.122Z,95.50
2018-12-02T22:37:51.728Z,95.40
2018-12-02T22:40:53.062Z,95.30
2018-12-02T22:43:21.709Z,95.20
2018-12-02T22:45:50.214Z,95.30
2018-12-02T22:48:18.670Z,95.20
2018-12-02T22:50:47.187Z,95.20
2018-12-02T22:53:15.764Z,95.30
2018-12-02T22:55:44.321Z,95.40
2018-12-02T22:58:12.865Z,95.60
2018-12-02T23:00:46.893Z,95.70
2018-12-02T23:03:16.423Z,95.80
2018-12-02T23:05:46.080Z,95.90
2018-12-02T23:08:14.606Z,95.90
2018-12-02T23:10:43.168Z,96.00
2018-12-02T23:13:11.818Z,96.00
2018-12-02T23:15:41.259Z,96.00
2018-12-02T23:18:11.071Z,96.00
2018-12-02T23:20:39.685Z,96.00
2018-12-02T23:23:08.238Z,96.00
2018-12-02T23:25:36.786Z,96.00
2018-12-02T23:28:05.464Z,95.90
2018-12-02T23:30:33.933Z,95.90
2018-12-02T23:33:02.539Z,95.80
2018-12-02T23:35:31.187Z,95.70
2018-12-02T23:37:59.814Z,96.00
2018-12-02T23:40:28.438Z,96.50
2018-12-02T23:42:56.945Z,96.80
2018-12-02T23:45:25.512Z,96.90
2018-12-02T23:47:54.022Z,97.00
2018-12-02T23:50:23.656Z,97.00
2018-12-02T23:52:52.204Z,97.20
2018-12-02T23:55:21.419Z,97.20
2018-12-02T23:57:49.988Z,97.10
